• Join FlightAware (Why Join?)
  • Login
  • US Flag 
10:00AM EDT


 

Airport Tracker/Info


-or-


 

Live Flight TrackerFlight Track Log ✈ SWA16 ✈ 06-May-2013 ✈ KLAS - KDEN

Flight Track Log - Related Links

Times and Time Zones

All times are in EDT time to prevent confusion due to time zone crossing. See the SWA16 flight status page for this flight to view local times or setup timezone preferences in your user account.

Time Position Orientation Groundspeed Altitude Reporting Facility
EDT Latitude Longitude Course Direction KTS MPH feet Rate Location/Type
05:15PM 36.0767 -115.0617 90° East 220 253 5,000  Level Los Angeles Center
05:16PM 36.0767 -114.9631 90° East 273 314 7,000 1,500 Climbing Los Angeles Center
05:17PM 36.0772 -114.9350 89° East 255 293 7,100 1,740 Climbing Los Angeles Center
05:18PM 36.0953 -114.8333 78° East 289 333 9,500 2,400 Climbing Los Angeles Center
05:19PM 36.1131 -114.7261 78° East 312 359 12,100 2,880 Climbing Los Angeles Center
05:21PM 36.2000 -114.1739 90° East  Level FlightAware Approximate
05:21PM 36.1525 -114.4928 78° East 345 397 18,500  Level Los Angeles Center
05:22PM 36.1731 -114.3383 81° East 373 429 21,400 2,340 Climbing Los Angeles Center
05:24PM 36.2428 -114.1181 64° Northeast  Level FlightAware Approximate
05:24PM 36.1631 -114.0617 64° Northeast 406 467 25,800  Level Los Angeles Center
05:26PM 36.2530 -113.8635 67° East  Level Estimated
05:27PM 36.3172 -113.6103 67° East 493 567 30,200  Level Los Angeles Center
05:28PM 36.3461 -113.4069 80° East 501 577 32,100 1,200 Climbing Los Angeles Center
05:29PM 36.3675 -113.2369 81° East 508 585 32,800 1,140 Climbing Los Angeles Center
05:30PM 36.4050 -113.0581 75° East 535 616 34,500 2,040 Climbing Los Angeles Center
05:32PM 36.4864 -112.7992 69° East 510 587 38,200 1,740 Climbing Denver Center
05:33PM 36.6592 -112.9893 67° East  Level FlightAware Approximate
05:33PM 36.5467 -112.6558 62° Northeast 477 549 39,100  Level Denver Center
05:34PM 36.6422 -112.4189 63° Northeast 481 554 39,100  Level Los Angeles Center
05:35PM 36.7025 -112.2711 63° Northeast 482 555 39,100  Level Los Angeles Center
05:36PM 36.7622 -112.1208 64° Northeast 485 558 39,100  Level Los Angeles Center
05:37PM 36.7986 -112.0317 63° Northeast 484 557 39,100  Level Denver Center
05:38PM 36.8586 -111.8831 63° Northeast 483 556 39,100  Level Denver Center
05:39PM 36.9178 -111.7347 63° Northeast 481 554 39,100  Level Denver Center
05:40PM 36.9769 -111.5853 64° Northeast 482 555 39,100  Level Denver Center
05:41PM 37.0361 -111.4392 63° Northeast 477 549 39,100  Level Denver Center
05:43PM 37.1253 -111.2072 64° Northeast 472 543 39,100  Level Los Angeles Center
05:43PM 37.1575 -111.1197 65° Northeast 469 540 39,100  Level Denver Center
05:45PM 37.2700 -110.8286 64° Northeast 467 537 39,100  Level Denver Center
05:46PM 37.3264 -110.6819 64° Northeast 468 539 39,100  Level Denver Center
05:48PM 37.3980 -110.4939 64° Northeast  Level FlightAware Approximate
05:48PM 37.4503 -110.3594 64° Northeast 468 539 39,100  Level Denver Center
05:49PM 37.5078 -110.2064 65° Northeast 464 534 39,100  Level Denver Center
05:50PM 37.5608 -110.0650 65° Northeast 465 535 39,100  Level Denver Center
05:51PM 37.6133 -109.9222 65° Northeast 468 539 39,100  Level Denver Center
05:53PM 37.6761 -109.7531 65° Northeast  Level FlightAware Approximate
05:55PM 37.8411 -109.3061 66° East 470 541 39,100  Level Denver Center
05:57PM 37.9095 -109.1599 59° Northeast  Level Estimated
05:57PM 37.9553 -108.9944 59° Northeast 471 542 39,100  Level Denver Center
05:58PM 38.0078 -108.8497 65° Northeast 471 542 39,100  Level Denver Center
06:00PM 38.0229 -108.8003 65° Northeast  Level FlightAware Approximate
06:00PM 38.0644 -108.6917 65° Northeast 472 543 39,100  Level Denver Center
06:01PM 38.0718 -108.6634 66° East  Level FlightAware Approximate
06:01PM 38.1127 -108.5544 66° East  Level FlightAware Approximate
06:03PM 38.2347 -108.2131 66° East 465 535 39,100  Level Denver Center
06:04PM 38.2844 -108.0717 66° East 461 531 39,100  Level Denver Center
06:05PM 38.3436 -107.9061 65° Northeast 461 531 39,100 -600 Level Denver Center
06:07PM 38.4494 -107.5994 66° East 455 524 37,300 -960 Descending Denver Center
06:08PM 38.4479 -107.5893 66° East  Level FlightAware Approximate
06:09PM 38.5496 -107.3576 61° Northeast  Level FlightAware Approximate
06:10PM 38.6411 -107.1711 61° Northeast 454 522 34,400  Level Denver Center
06:12PM 38.7653 -106.8917 60° Northeast 453 521 32,500 -1,020 Descending Denver Center
06:14PM 38.8516 -106.6651 38° Northeast  Level FlightAware Approximate
06:16PM 39.0258 -106.3172 67° East 433 498 28,300  Level Denver Center
06:17PM 39.0831 -106.1897 60° Northeast 431 496 27,400 -960 Descending Denver Center
06:18PM 39.1386 -106.0628 61° Northeast 427 491 26,400 -1,200 Descending Denver Center
06:19PM 39.2081 -105.9072 60° Northeast 424 488 25,000 -1,740 Descending Denver Center
06:21PM 39.2639 -105.7417 67° East  Level FlightAware Approximate
06:21PM 39.2794 -105.7079 57° Northeast  Level FlightAware Approximate
06:21PM 39.3208 -105.6483 57° Northeast 407 468 21,100  Level Denver Center
06:23PM 39.4000 -105.4500 63° Northeast 365 420 18,400 -1,620 Descending Denver TRACON
06:23PM 39.3992 -105.3978 91° East 345 397 17,800 -1,620 Descending Denver Center
06:24PM 39.4044 -105.2764 87° East 340 391 16,200 -1,440 Descending Denver Center
06:26PM 39.4153 -105.0356 87° East 314 361 13,400 -1,080 Descending Denver Center
06:27PM 39.4192 -104.9286 87° East 284 327 13,000 -780 Descending Denver Center
06:28PM 39.4481 -104.8519 64° Northeast 254 292 11,900 -960 Descending Denver Center
06:31PM 39.5833 -104.7500 30° Northeast 243 280 10,000 -840 Descending Denver TRACON
06:31PM 39.6336 -104.7272 19° North 243 280 9,400 -1,020 Descending Denver Center
06:35PM 39.8000 -104.6667 16° North 151 174 6,000 -1,080 Descending Denver TRACON
06:37PM 39.8500 -104.6667 North  Level FlightAware Approximate
06:44PM 39.8617 -104.6732 North  Level Estimated
06:45PM 39.8617 -104.6732 North  Level Estimated
06:46PM 39.8617 -104.6732 North  Level Estimated
06:47PM 39.8617 -104.6732 North  Level Estimated